sensor_id;sensor_type;location;lat;lon;timestamp;P1;durP1;ratioP1;P2;durP2;ratioP2
74541;SDS011;63015;45.378;20.360;2022-11-03T00:00:44;71.93;;;25.38;;
74541;SDS011;63015;45.378;20.360;2022-11-03T00:02:44;63.85;;;24.48;;
74541;SDS011;63015;45.378;20.360;2022-11-03T00:04:45;73.10;;;25.88;;
74541;SDS011;63015;45.378;20.360;2022-11-03T00:06:46;73.38;;;25.30;;
74541;SDS011;63015;45.378;20.360;2022-11-03T00:08:51;65.10;;;25.45;;
74541;SDS011;63015;45.378;20.360;2022-11-03T00:10:51;65.53;;;23.70;;
74541;SDS011;63015;45.378;20.360;2022-11-03T00:12:52;69.80;;;24.73;;
74541;SDS011;63015;45.378;20.360;2022-11-03T00:14:53;64.25;;;24.00;;
74541;SDS011;63015;45.378;20.360;2022-11-03T00:16:53;69.35;;;23.23;;
74541;SDS011;63015;45.378;20.360;2022-11-03T00:18:54;70.13;;;26.73;;
74541;SDS011;63015;45.378;20.360;2022-11-03T00:21:04;72.07;;;26.10;;
74541;SDS011;63015;45.378;20.360;2022-11-03T00:23:07;76.90;;;26.67;;
74541;SDS011;63015;45.378;20.360;2022-11-03T00:25:07;76.43;;;26.33;;
74541;SDS011;63015;45.378;20.360;2022-11-03T00:27:08;76.68;;;26.92;;
74541;SDS011;63015;45.378;20.360;2022-11-03T00:29:09;68.40;;;26.63;;
74541;SDS011;63015;45.378;20.360;2022-11-03T00:31:12;73.60;;;28.15;;
74541;SDS011;63015;45.378;20.360;2022-11-03T00:33:14;76.82;;;28.55;;
74541;SDS011;63015;45.378;20.360;2022-11-03T00:35:15;74.25;;;26.50;;
74541;SDS011;63015;45.378;20.360;2022-11-03T00:37:15;76.70;;;26.55;;
74541;SDS011;63015;45.378;20.360;2022-11-03T00:39:16;74.72;;;27.20;;
74541;SDS011;63015;45.378;20.360;2022-11-03T00:41:18;84.88;;;29.35;;
74541;SDS011;63015;45.378;20.360;2022-11-03T00:43:20;81.75;;;27.83;;
74541;SDS011;63015;45.378;20.360;2022-11-03T00:45:22;77.13;;;28.33;;
74541;SDS011;63015;45.378;20.360;2022-11-03T00:47:22;81.10;;;28.42;;
74541;SDS011;63015;45.378;20.360;2022-11-03T00:49:23;72.25;;;25.95;;
74541;SDS011;63015;45.378;20.360;2022-11-03T00:51:24;68.28;;;25.25;;
74541;SDS011;63015;45.378;20.360;2022-11-03T00:53:27;75.00;;;28.83;;
74541;SDS011;63015;45.378;20.360;2022-11-03T00:55:28;73.82;;;26.85;;
74541;SDS011;63015;45.378;20.360;2022-11-03T00:57:28;82.40;;;28.00;;
74541;SDS011;63015;45.378;20.360;2022-11-03T00:59:29;93.20;;;29.70;;
74541;SDS011;63015;45.378;20.360;2022-11-03T01:01:30;71.10;;;26.33;;
74541;SDS011;63015;45.378;20.360;2022-11-03T01:03:34;71.93;;;27.27;;
74541;SDS011;63015;45.378;20.360;2022-11-03T01:05:40;81.60;;;27.70;;
74541;SDS011;63015;45.378;20.360;2022-11-03T01:08:02;75.60;;;26.95;;
74541;SDS011;63015;45.378;20.360;2022-11-03T01:10:04;79.63;;;27.70;;
74541;SDS011;63015;45.378;20.360;2022-11-03T01:14:14;69.63;;;26.40;;
74541;SDS011;63015;45.378;20.360;2022-11-03T01:16:15;79.43;;;28.17;;
74541;SDS011;63015;45.378;20.360;2022-11-03T01:18:15;74.18;;;27.50;;
74541;SDS011;63015;45.378;20.360;2022-11-03T01:20:16;75.40;;;27.80;;
74541;SDS011;63015;45.378;20.360;2022-11-03T01:22:17;79.50;;;27.85;;
74541;SDS011;63015;45.378;20.360;2022-11-03T01:24:18;80.50;;;28.38;;
74541;SDS011;63015;45.378;20.360;2022-11-03T01:26:19;74.05;;;28.52;;
74541;SDS011;63015;45.378;20.360;2022-11-03T01:28:20;78.13;;;28.17;;
74541;SDS011;63015;45.378;20.360;2022-11-03T01:30:20;76.10;;;27.95;;
74541;SDS011;63015;45.378;20.360;2022-11-03T01:32:21;72.60;;;26.85;;
74541;SDS011;63015;45.378;20.360;2022-11-03T01:34:21;75.63;;;26.90;;
74541;SDS011;63015;45.378;20.360;2022-11-03T01:36:22;82.07;;;29.63;;
74541;SDS011;63015;45.378;20.360;2022-11-03T01:38:23;88.53;;;29.60;;
74541;SDS011;63015;45.378;20.360;2022-11-03T01:40:24;75.20;;;27.50;;
74541;SDS011;63015;45.378;20.360;2022-11-03T01:42:24;81.63;;;29.50;;
74541;SDS011;63015;45.378;20.360;2022-11-03T01:44:38;72.38;;;28.27;;
74541;SDS011;63015;45.378;20.360;2022-11-03T01:50:58;69.60;;;26.65;;
74541;SDS011;63015;45.378;20.360;2022-11-03T01:52:59;81.82;;;28.25;;
74541;SDS011;63015;45.378;20.360;2022-11-03T01:55:02;79.20;;;28.10;;
74541;SDS011;63015;45.378;20.360;2022-11-03T01:57:08;86.50;;;29.77;;
74541;SDS011;63015;45.378;20.360;2022-11-03T01:59:15;77.90;;;30.13;;
74541;SDS011;63015;45.378;20.360;2022-11-03T02:01:20;75.88;;;27.15;;
74541;SDS011;63015;45.378;20.360;2022-11-03T02:03:21;79.50;;;29.10;;
74541;SDS011;63015;45.378;20.360;2022-11-03T02:05:23;78.03;;;29.55;;
74541;SDS011;63015;45.378;20.360;2022-11-03T02:09:26;77.22;;;29.63;;
74541;SDS011;63015;45.378;20.360;2022-11-03T02:11:28;76.47;;;29.77;;
74541;SDS011;63015;45.378;20.360;2022-11-03T02:13:48;81.28;;;30.05;;
74541;SDS011;63015;45.378;20.360;2022-11-03T02:15:49;78.72;;;28.67;;
74541;SDS011;63015;45.378;20.360;2022-11-03T02:17:52;78.15;;;30.88;;
74541;SDS011;63015;45.378;20.360;2022-11-03T02:26:43;72.50;;;29.13;;
74541;SDS011;63015;45.378;20.360;2022-11-03T02:28:47;82.72;;;29.30;;
74541;SDS011;63015;45.378;20.360;2022-11-03T02:30:49;77.30;;;29.42;;
74541;SDS011;63015;45.378;20.360;2022-11-03T02:33:05;84.53;;;29.63;;
74541;SDS011;63015;45.378;20.360;2022-11-03T02:35:28;80.95;;;29.05;;
74541;SDS011;63015;45.378;20.360;2022-11-03T02:37:38;81.82;;;29.85;;
74541;SDS011;63015;45.378;20.360;2022-11-03T02:39:43;75.97;;;29.63;;
74541;SDS011;63015;45.378;20.360;2022-11-03T02:41:51;80.25;;;29.05;;
74541;SDS011;63015;45.378;20.360;2022-11-03T02:43:55;69.30;;;29.17;;
74541;SDS011;63015;45.378;20.360;2022-11-03T02:45:56;78.78;;;29.17;;
74541;SDS011;63015;45.378;20.360;2022-11-03T02:47:58;69.72;;;29.25;;
74541;SDS011;63015;45.378;20.360;2022-11-03T02:54:07;74.40;;;27.50;;
74541;SDS011;63015;45.378;20.360;2022-11-03T03:00:35;75.80;;;28.95;;
74541;SDS011;63015;45.378;20.360;2022-11-03T03:02:57;76.78;;;26.92;;
74541;SDS011;63015;45.378;20.360;2022-11-03T03:05:05;82.72;;;29.70;;
74541;SDS011;63015;45.378;20.360;2022-11-03T03:07:29;90.13;;;31.92;;
74541;SDS011;63015;45.378;20.360;2022-11-03T03:09:33;81.32;;;29.50;;
74541;SDS011;63015;45.378;20.360;2022-11-03T03:11:37;80.55;;;30.40;;
74541;SDS011;63015;45.378;20.360;2022-11-03T03:13:42;78.45;;;29.33;;
74541;SDS011;63015;45.378;20.360;2022-11-03T03:15:47;83.35;;;29.45;;
74541;SDS011;63015;45.378;20.360;2022-11-03T03:17:53;89.05;;;30.85;;
74541;SDS011;63015;45.378;20.360;2022-11-03T03:20:29;75.78;;;29.05;;
74541;SDS011;63015;45.378;20.360;2022-11-03T03:22:42;88.25;;;32.00;;
74541;SDS011;63015;45.378;20.360;2022-11-03T03:27:01;95.05;;;32.22;;
74541;SDS011;63015;45.378;20.360;2022-11-03T03:29:22;84.30;;;29.83;;
74541;SDS011;63015;45.378;20.360;2022-11-03T03:31:26;85.18;;;31.08;;
74541;SDS011;63015;45.378;20.360;2022-11-03T03:33:30;83.32;;;30.27;;
74541;SDS011;63015;45.378;20.360;2022-11-03T03:35:32;93.03;;;31.92;;
74541;SDS011;63015;45.378;20.360;2022-11-03T03:37:38;95.63;;;31.75;;
74541;SDS011;63015;45.378;20.360;2022-11-03T03:39:44;94.55;;;31.58;;
74541;SDS011;63015;45.378;20.360;2022-11-03T03:41:47;85.40;;;31.33;;
74541;SDS011;63015;45.378;20.360;2022-11-03T03:43:49;95.30;;;32.55;;
74541;SDS011;63015;45.378;20.360;2022-11-03T03:45:51;93.63;;;32.03;;
74541;SDS011;63015;45.378;20.360;2022-11-03T03:47:57;99.65;;;33.70;;
74541;SDS011;63015;45.378;20.360;2022-11-03T03:49:58;99.57;;;32.85;;
74541;SDS011;63015;45.378;20.360;2022-11-03T03:52:00;96.75;;;32.30;;
74541;SDS011;63015;45.378;20.360;2022-11-03T03:54:02;89.13;;;31.65;;
74541;SDS011;63015;45.378;20.360;2022-11-03T03:56:03;96.63;;;32.08;;
74541;SDS011;63015;45.378;20.360;2022-11-03T03:58:07;97.55;;;32.60;;
74541;SDS011;63015;45.378;20.360;2022-11-03T04:00:12;100.25;;;33.05;;
74541;SDS011;63015;45.378;20.360;2022-11-03T04:02:15;95.50;;;31.33;;
74541;SDS011;63015;45.378;20.360;2022-11-03T04:04:15;109.43;;;32.55;;
74541;SDS011;63015;45.378;20.360;2022-11-03T04:06:16;106.85;;;32.85;;
74541;SDS011;63015;45.378;20.360;2022-11-03T04:08:17;121.50;;;33.38;;
74541;SDS011;63015;45.378;20.360;2022-11-03T04:10:21;95.97;;;30.33;;
74541;SDS011;63015;45.378;20.360;2022-11-03T04:12:22;96.32;;;32.92;;
74541;SDS011;63015;45.378;20.360;2022-11-03T04:14:41;102.13;;;32.75;;
74541;SDS011;63015;45.378;20.360;2022-11-03T04:17:00;105.90;;;32.80;;
74541;SDS011;63015;45.378;20.360;2022-11-03T04:19:20;110.45;;;34.17;;
74541;SDS011;63015;45.378;20.360;2022-11-03T04:21:39;97.13;;;32.17;;
74541;SDS011;63015;45.378;20.360;2022-11-03T04:23:58;89.72;;;31.73;;
74541;SDS011;63015;45.378;20.360;2022-11-03T04:25:59;94.07;;;31.67;;
74541;SDS011;63015;45.378;20.360;2022-11-03T04:28:00;112.28;;;33.63;;
74541;SDS011;63015;45.378;20.360;2022-11-03T04:30:17;102.53;;;31.88;;
74541;SDS011;63015;45.378;20.360;2022-11-03T04:32:19;111.60;;;31.95;;
74541;SDS011;63015;45.378;20.360;2022-11-03T04:34:19;104.32;;;32.75;;
74541;SDS011;63015;45.378;20.360;2022-11-03T04:36:23;104.65;;;32.08;;
74541;SDS011;63015;45.378;20.360;2022-11-03T04:38:25;95.00;;;31.38;;
74541;SDS011;63015;45.378;20.360;2022-11-03T04:40:26;92.10;;;31.15;;
74541;SDS011;63015;45.378;20.360;2022-11-03T04:42:30;102.82;;;31.83;;
74541;SDS011;63015;45.378;20.360;2022-11-03T04:44:32;117.10;;;33.00;;
74541;SDS011;63015;45.378;20.360;2022-11-03T04:46:32;98.72;;;31.67;;
74541;SDS011;63015;45.378;20.360;2022-11-03T04:48:33;100.28;;;33.03;;
74541;SDS011;63015;45.378;20.360;2022-11-03T04:50:34;110.72;;;32.60;;
74541;SDS011;63015;45.378;20.360;2022-11-03T04:52:34;123.00;;;32.38;;
74541;SDS011;63015;45.378;20.360;2022-11-03T04:54:35;110.45;;;34.13;;
74541;SDS011;63015;45.378;20.360;2022-11-03T04:56:35;102.00;;;34.03;;
74541;SDS011;63015;45.378;20.360;2022-11-03T04:58:36;110.20;;;33.88;;
74541;SDS011;63015;45.378;20.360;2022-11-03T05:00:36;117.95;;;32.92;;
74541;SDS011;63015;45.378;20.360;2022-11-03T05:02:38;104.70;;;34.03;;
74541;SDS011;63015;45.378;20.360;2022-11-03T05:04:39;111.50;;;33.67;;
74541;SDS011;63015;45.378;20.360;2022-11-03T05:06:40;102.72;;;34.00;;
74541;SDS011;63015;45.378;20.360;2022-11-03T05:08:50;136.45;;;35.03;;
74541;SDS011;63015;45.378;20.360;2022-11-03T05:10:53;118.90;;;34.63;;
74541;SDS011;63015;45.378;20.360;2022-11-03T05:12:54;113.15;;;33.50;;
74541;SDS011;63015;45.378;20.360;2022-11-03T05:14:55;99.40;;;32.45;;
74541;SDS011;63015;45.378;20.360;2022-11-03T05:16:55;122.70;;;33.05;;
74541;SDS011;63015;45.378;20.360;2022-11-03T05:18:57;128.98;;;34.55;;
74541;SDS011;63015;45.378;20.360;2022-11-03T05:21:06;117.32;;;33.67;;
74541;SDS011;63015;45.378;20.360;2022-11-03T05:23:10;135.90;;;33.78;;
74541;SDS011;63015;45.378;20.360;2022-11-03T05:25:24;138.13;;;34.97;;
74541;SDS011;63015;45.378;20.360;2022-11-03T05:27:33;153.07;;;35.33;;
74541;SDS011;63015;45.378;20.360;2022-11-03T05:29:35;119.82;;;33.45;;
74541;SDS011;63015;45.378;20.360;2022-11-03T05:31:36;161.82;;;37.17;;
74541;SDS011;63015;45.378;20.360;2022-11-03T05:33:40;147.63;;;35.45;;
74541;SDS011;63015;45.378;20.360;2022-11-03T05:35:41;135.15;;;32.90;;
74541;SDS011;63015;45.378;20.360;2022-11-03T05:37:42;176.52;;;35.92;;
74541;SDS011;63015;45.378;20.360;2022-11-03T05:39:43;139.90;;;35.78;;
74541;SDS011;63015;45.378;20.360;2022-11-03T05:41:47;137.60;;;33.63;;
74541;SDS011;63015;45.378;20.360;2022-11-03T05:43:52;143.43;;;34.67;;
74541;SDS011;63015;45.378;20.360;2022-11-03T05:45:56;133.45;;;31.48;;
74541;SDS011;63015;45.378;20.360;2022-11-03T05:48:01;132.63;;;31.17;;
74541;SDS011;63015;45.378;20.360;2022-11-03T05:50:45;140.10;;;34.03;;
74541;SDS011;63015;45.378;20.360;2022-11-03T05:52:35;146.30;;;34.17;;
74541;SDS011;63015;45.378;20.360;2022-11-03T05:54:35;137.05;;;34.80;;
74541;SDS011;63015;45.378;20.360;2022-11-03T05:56:36;129.52;;;32.85;;
74541;SDS011;63015;45.378;20.360;2022-11-03T05:58:39;149.40;;;35.72;;
74541;SDS011;63015;45.378;20.360;2022-11-03T06:00:42;147.60;;;34.25;;
74541;SDS011;63015;45.378;20.360;2022-11-03T06:02:43;130.93;;;34.80;;
74541;SDS011;63015;45.378;20.360;2022-11-03T06:04:44;145.38;;;34.58;;
74541;SDS011;63015;45.378;20.360;2022-11-03T06:06:59;125.28;;;33.63;;
74541;SDS011;63015;45.378;20.360;2022-11-03T06:09:04;122.55;;;29.45;;
74541;SDS011;63015;45.378;20.360;2022-11-03T06:11:21;122.00;;;31.25;;
74541;SDS011;63015;45.378;20.360;2022-11-03T06:13:26;109.85;;;29.98;;
74541;SDS011;63015;45.378;20.360;2022-11-03T06:15:34;148.75;;;34.72;;
74541;SDS011;63015;45.378;20.360;2022-11-03T06:17:35;136.00;;;32.25;;
74541;SDS011;63015;45.378;20.360;2022-11-03T06:19:37;131.10;;;32.70;;
74541;SDS011;63015;45.378;20.360;2022-11-03T06:21:41;124.32;;;30.90;;
74541;SDS011;63015;45.378;20.360;2022-11-03T06:23:42;120.47;;;30.88;;
74541;SDS011;63015;45.378;20.360;2022-11-03T06:25:43;120.75;;;34.03;;
74541;SDS011;63015;45.378;20.360;2022-11-03T06:27:43;107.82;;;30.90;;
74541;SDS011;63015;45.378;20.360;2022-11-03T06:29:46;124.40;;;32.85;;
74541;SDS011;63015;45.378;20.360;2022-11-03T06:31:53;134.63;;;34.40;;
74541;SDS011;63015;45.378;20.360;2022-11-03T06:33:56;137.98;;;33.70;;
74541;SDS011;63015;45.378;20.360;2022-11-03T06:35:58;143.10;;;32.60;;
74541;SDS011;63015;45.378;20.360;2022-11-03T06:38:07;197.57;;;28.33;;
74541;SDS011;63015;45.378;20.360;2022-11-03T06:42:22;276.02;;;31.20;;
74541;SDS011;63015;45.378;20.360;2022-11-03T06:44:25;322.23;;;32.38;;
74541;SDS011;63015;45.378;20.360;2022-11-03T06:46:28;382.40;;;35.05;;
74541;SDS011;63015;45.378;20.360;2022-11-03T06:48:29;429.25;;;40.47;;
74541;SDS011;63015;45.378;20.360;2022-11-03T06:50:33;276.35;;;34.60;;
74541;SDS011;63015;45.378;20.360;2022-11-03T06:52:35;404.30;;;35.35;;
74541;SDS011;63015;45.378;20.360;2022-11-03T06:54:38;289.90;;;28.20;;
74541;SDS011;63015;45.378;20.360;2022-11-03T06:56:39;343.63;;;33.55;;
74541;SDS011;63015;45.378;20.360;2022-11-03T06:58:41;457.33;;;36.05;;
74541;SDS011;63015;45.378;20.360;2022-11-03T07:00:42;344.67;;;33.17;;
74541;SDS011;63015;45.378;20.360;2022-11-03T07:03:26;516.72;;;39.22;;
74541;SDS011;63015;45.378;20.360;2022-11-03T07:05:25;333.23;;;32.92;;
74541;SDS011;63015;45.378;20.360;2022-11-03T07:07:27;423.08;;;39.55;;
74541;SDS011;63015;45.378;20.360;2022-11-03T07:09:30;581.13;;;44.97;;
74541;SDS011;63015;45.378;20.360;2022-11-03T07:11:31;448.63;;;42.30;;
74541;SDS011;63015;45.378;20.360;2022-11-03T07:13:38;432.35;;;38.75;;
74541;SDS011;63015;45.378;20.360;2022-11-03T07:15:38;419.90;;;39.50;;
74541;SDS011;63015;45.378;20.360;2022-11-03T07:17:40;390.70;;;38.75;;
74541;SDS011;63015;45.378;20.360;2022-11-03T07:19:41;400.65;;;38.90;;
74541;SDS011;63015;45.378;20.360;2022-11-03T07:23:47;270.15;;;33.38;;
74541;SDS011;63015;45.378;20.360;2022-11-03T07:25:52;431.67;;;40.45;;
74541;SDS011;63015;45.378;20.360;2022-11-03T07:27:55;411.85;;;37.97;;
74541;SDS011;63015;45.378;20.360;2022-11-03T07:29:57;432.10;;;40.55;;
74541;SDS011;63015;45.378;20.360;2022-11-03T07:32:08;240.93;;;39.00;;
74541;SDS011;63015;45.378;20.360;2022-11-03T07:34:14;194.23;;;32.85;;
74541;SDS011;63015;45.378;20.360;2022-11-03T07:36:21;148.20;;;28.98;;
74541;SDS011;63015;45.378;20.360;2022-11-03T07:38:24;168.55;;;31.50;;
74541;SDS011;63015;45.378;20.360;2022-11-03T07:40:27;158.52;;;33.25;;
74541;SDS011;63015;45.378;20.360;2022-11-03T07:42:30;178.27;;;34.50;;
74541;SDS011;63015;45.378;20.360;2022-11-03T07:44:34;158.20;;;32.55;;
74541;SDS011;63015;45.378;20.360;2022-11-03T07:46:34;153.50;;;31.80;;
74541;SDS011;63015;45.378;20.360;2022-11-03T07:48:42;152.85;;;33.55;;
74541;SDS011;63015;45.378;20.360;2022-11-03T07:50:44;147.93;;;32.35;;
74541;SDS011;63015;45.378;20.360;2022-11-03T07:52:45;153.05;;;32.80;;
74541;SDS011;63015;45.378;20.360;2022-11-03T07:54:46;159.02;;;35.13;;
74541;SDS011;63015;45.378;20.360;2022-11-03T08:01:25;144.85;;;33.67;;
74541;SDS011;63015;45.378;20.360;2022-11-03T08:03:40;114.55;;;28.85;;
74541;SDS011;63015;45.378;20.360;2022-11-03T08:05:45;114.57;;;32.03;;
74541;SDS011;63015;45.378;20.360;2022-11-03T08:07:45;120.25;;;29.25;;
74541;SDS011;63015;45.378;20.360;2022-11-03T08:09:46;127.60;;;30.85;;
74541;SDS011;63015;45.378;20.360;2022-11-03T08:11:47;125.88;;;32.92;;
74541;SDS011;63015;45.378;20.360;2022-11-03T08:13:51;129.75;;;31.08;;
74541;SDS011;63015;45.378;20.360;2022-11-03T08:15:52;121.65;;;31.25;;
74541;SDS011;63015;45.378;20.360;2022-11-03T08:17:53;124.25;;;33.22;;
74541;SDS011;63015;45.378;20.360;2022-11-03T08:19:53;114.93;;;29.73;;
74541;SDS011;63015;45.378;20.360;2022-11-03T08:21:54;111.97;;;30.85;;
74541;SDS011;63015;45.378;20.360;2022-11-03T08:23:54;118.95;;;31.15;;
74541;SDS011;63015;45.378;20.360;2022-11-03T08:25:55;118.15;;;32.33;;
74541;SDS011;63015;45.378;20.360;2022-11-03T08:27:55;109.22;;;30.10;;
74541;SDS011;63015;45.378;20.360;2022-11-03T08:29:56;119.05;;;32.38;;
74541;SDS011;63015;45.378;20.360;2022-11-03T08:31:56;111.82;;;30.83;;
74541;SDS011;63015;45.378;20.360;2022-11-03T08:33:57;114.28;;;32.83;;
74541;SDS011;63015;45.378;20.360;2022-11-03T08:35:58;128.23;;;36.20;;
74541;SDS011;63015;45.378;20.360;2022-11-03T08:37:58;95.80;;;28.38;;
74541;SDS011;63015;45.378;20.360;2022-11-03T08:39:59;113.18;;;32.80;;
74541;SDS011;63015;45.378;20.360;2022-11-03T08:41:59;112.28;;;31.90;;
74541;SDS011;63015;45.378;20.360;2022-11-03T08:44:00;119.07;;;38.03;;
74541;SDS011;63015;45.378;20.360;2022-11-03T08:46:00;116.43;;;36.75;;
74541;SDS011;63015;45.378;20.360;2022-11-03T08:48:01;110.75;;;32.60;;
74541;SDS011;63015;45.378;20.360;2022-11-03T08:50:03;113.90;;;35.40;;
74541;SDS011;63015;45.378;20.360;2022-11-03T08:52:04;113.53;;;34.42;;
74541;SDS011;63015;45.378;20.360;2022-11-03T08:54:04;123.40;;;35.60;;
74541;SDS011;63015;45.378;20.360;2022-11-03T08:56:05;115.82;;;30.55;;
74541;SDS011;63015;45.378;20.360;2022-11-03T08:58:06;120.32;;;33.75;;
74541;SDS011;63015;45.378;20.360;2022-11-03T09:00:06;112.75;;;32.42;;
74541;SDS011;63015;45.378;20.360;2022-11-03T09:02:08;107.43;;;31.95;;
74541;SDS011;63015;45.378;20.360;2022-11-03T09:04:08;91.22;;;27.27;;
74541;SDS011;63015;45.378;20.360;2022-11-03T09:06:09;105.13;;;31.20;;
74541;SDS011;63015;45.378;20.360;2022-11-03T09:08:10;80.47;;;25.95;;
74541;SDS011;63015;45.378;20.360;2022-11-03T09:10:10;89.00;;;28.48;;
74541;SDS011;63015;45.378;20.360;2022-11-03T09:12:11;102.30;;;30.17;;
74541;SDS011;63015;45.378;20.360;2022-11-03T09:14:12;91.88;;;32.22;;
74541;SDS011;63015;45.378;20.360;2022-11-03T09:16:13;80.80;;;27.45;;
74541;SDS011;63015;45.378;20.360;2022-11-03T09:18:13;87.22;;;28.85;;
74541;SDS011;63015;45.378;20.360;2022-11-03T09:20:14;84.95;;;30.63;;
74541;SDS011;63015;45.378;20.360;2022-11-03T09:22:14;74.97;;;27.85;;
74541;SDS011;63015;45.378;20.360;2022-11-03T09:24:15;74.93;;;27.33;;
74541;SDS011;63015;45.378;20.360;2022-11-03T09:26:15;75.32;;;28.63;;
74541;SDS011;63015;45.378;20.360;2022-11-03T09:28:16;71.85;;;26.88;;
74541;SDS011;63015;45.378;20.360;2022-11-03T09:30:17;77.60;;;29.08;;
74541;SDS011;63015;45.378;20.360;2022-11-03T09:32:17;73.95;;;27.90;;
74541;SDS011;63015;45.378;20.360;2022-11-03T09:34:18;74.88;;;30.33;;
74541;SDS011;63015;45.378;20.360;2022-11-03T09:36:19;92.30;;;42.75;;
74541;SDS011;63015;45.378;20.360;2022-11-03T09:38:19;69.55;;;30.33;;
74541;SDS011;63015;45.378;20.360;2022-11-03T09:40:20;69.78;;;32.35;;
74541;SDS011;63015;45.378;20.360;2022-11-03T09:42:21;74.40;;;33.40;;
74541;SDS011;63015;45.378;20.360;2022-11-03T09:44:22;71.85;;;30.35;;
74541;SDS011;63015;45.378;20.360;2022-11-03T09:46:24;96.45;;;43.25;;
74541;SDS011;63015;45.378;20.360;2022-11-03T09:50:27;68.55;;;28.52;;
74541;SDS011;63015;45.378;20.360;2022-11-03T09:52:28;65.55;;;27.17;;
74541;SDS011;63015;45.378;20.360;2022-11-03T09:54:30;72.75;;;28.33;;
74541;SDS011;63015;45.378;20.360;2022-11-03T09:56:31;81.00;;;31.48;;
74541;SDS011;63015;45.378;20.360;2022-11-03T09:58:35;83.82;;;33.00;;
74541;SDS011;63015;45.378;20.360;2022-11-03T10:00:36;91.65;;;33.65;;
74541;SDS011;63015;45.378;20.360;2022-11-03T10:02:37;87.70;;;34.60;;
74541;SDS011;63015;45.378;20.360;2022-11-03T10:04:38;77.20;;;29.90;;
74541;SDS011;63015;45.378;20.360;2022-11-03T10:06:39;59.30;;;22.73;;
74541;SDS011;63015;45.378;20.360;2022-11-03T10:08:39;70.43;;;28.42;;
74541;SDS011;63015;45.378;20.360;2022-11-03T10:10:42;73.68;;;28.10;;
74541;SDS011;63015;45.378;20.360;2022-11-03T10:12:42;69.43;;;27.67;;
74541;SDS011;63015;45.378;20.360;2022-11-03T10:14:44;69.10;;;26.27;;
74541;SDS011;63015;45.378;20.360;2022-11-03T10:16:49;82.15;;;29.45;;
74541;SDS011;63015;45.378;20.360;2022-11-03T10:18:59;63.95;;;25.73;;
74541;SDS011;63015;45.378;20.360;2022-11-03T10:21:14;72.00;;;29.25;;
74541;SDS011;63015;45.378;20.360;2022-11-03T10:23:17;68.60;;;25.17;;
74541;SDS011;63015;45.378;20.360;2022-11-03T10:29:34;94.55;;;38.08;;
74541;SDS011;63015;45.378;20.360;2022-11-03T10:31:35;80.30;;;31.85;;
74541;SDS011;63015;45.378;20.360;2022-11-03T10:35:39;77.60;;;28.05;;
74541;SDS011;63015;45.378;20.360;2022-11-03T10:37:40;81.68;;;31.17;;
74541;SDS011;63015;45.378;20.360;2022-11-03T10:39:41;62.85;;;25.20;;
74541;SDS011;63015;45.378;20.360;2022-11-03T10:41:54;67.72;;;25.35;;
74541;SDS011;63015;45.378;20.360;2022-11-03T10:48:17;53.75;;;20.88;;
74541;SDS011;63015;45.378;20.360;2022-11-03T10:50:19;56.88;;;22.83;;
74541;SDS011;63015;45.378;20.360;2022-11-03T10:52:23;59.20;;;24.30;;
74541;SDS011;63015;45.378;20.360;2022-11-03T10:56:34;52.08;;;18.58;;
74541;SDS011;63015;45.378;20.360;2022-11-03T10:58:35;51.60;;;20.52;;
74541;SDS011;63015;45.378;20.360;2022-11-03T11:00:38;44.45;;;17.42;;
74541;SDS011;63015;45.378;20.360;2022-11-03T11:02:41;50.35;;;21.08;;
74541;SDS011;63015;45.378;20.360;2022-11-03T11:04:44;57.38;;;24.13;;
74541;SDS011;63015;45.378;20.360;2022-11-03T11:06:48;45.92;;;17.90;;
74541;SDS011;63015;45.378;20.360;2022-11-03T11:08:51;57.97;;;22.48;;
74541;SDS011;63015;45.378;20.360;2022-11-03T11:10:53;42.08;;;18.25;;
74541;SDS011;63015;45.378;20.360;2022-11-03T11:13:27;67.30;;;29.98;;
74541;SDS011;63015;45.378;20.360;2022-11-03T11:17:43;67.50;;;28.50;;
74541;SDS011;63015;45.378;20.360;2022-11-03T11:20:15;68.78;;;30.20;;
74541;SDS011;63015;45.378;20.360;2022-11-03T11:22:21;71.35;;;31.02;;
74541;SDS011;63015;45.378;20.360;2022-11-03T11:26:41;71.18;;;31.17;;
74541;SDS011;63015;45.378;20.360;2022-11-03T11:28:59;70.47;;;31.42;;
74541;SDS011;63015;45.378;20.360;2022-11-03T11:31:27;64.38;;;30.17;;
74541;SDS011;63015;45.378;20.360;2022-11-03T11:33:32;51.58;;;25.38;;
74541;SDS011;63015;45.378;20.360;2022-11-03T11:37:34;57.92;;;26.98;;
74541;SDS011;63015;45.378;20.360;2022-11-03T11:46:38;37.25;;;17.40;;
74541;SDS011;63015;45.378;20.360;2022-11-03T11:48:39;39.08;;;18.50;;
74541;SDS011;63015;45.378;20.360;2022-11-03T11:50:40;40.10;;;15.63;;
74541;SDS011;63015;45.378;20.360;2022-11-03T11:52:42;37.00;;;16.80;;
74541;SDS011;63015;45.378;20.360;2022-11-03T11:54:57;41.83;;;16.73;;
74541;SDS011;63015;45.378;20.360;2022-11-03T11:56:57;41.28;;;17.27;;
74541;SDS011;63015;45.378;20.360;2022-11-03T11:58:58;38.38;;;16.75;;
74541;SDS011;63015;45.378;20.360;2022-11-03T12:01:03;41.30;;;17.15;;
74541;SDS011;63015;45.378;20.360;2022-11-03T12:03:27;26.65;;;13.20;;
74541;SDS011;63015;45.378;20.360;2022-11-03T12:05:31;36.38;;;15.43;;
74541;SDS011;63015;45.378;20.360;2022-11-03T12:07:33;30.40;;;13.38;;
74541;SDS011;63015;45.378;20.360;2022-11-03T12:09:35;38.85;;;16.13;;
74541;SDS011;63015;45.378;20.360;2022-11-03T12:11:43;31.75;;;14.63;;
74541;SDS011;63015;45.378;20.360;2022-11-03T12:15:53;32.50;;;15.38;;
74541;SDS011;63015;45.378;20.360;2022-11-03T12:17:55;35.67;;;16.05;;
74541;SDS011;63015;45.378;20.360;2022-11-03T12:19:55;32.58;;;14.30;;
74541;SDS011;63015;45.378;20.360;2022-11-03T12:21:56;34.25;;;15.75;;
74541;SDS011;63015;45.378;20.360;2022-11-03T12:23:57;30.45;;;14.30;;
74541;SDS011;63015;45.378;20.360;2022-11-03T12:25:57;32.28;;;14.48;;
74541;SDS011;63015;45.378;20.360;2022-11-03T12:27:58;35.15;;;15.60;;
74541;SDS011;63015;45.378;20.360;2022-11-03T12:29:59;26.27;;;12.55;;
74541;SDS011;63015;45.378;20.360;2022-11-03T12:32:01;32.13;;;14.73;;
74541;SDS011;63015;45.378;20.360;2022-11-03T12:34:02;30.65;;;14.00;;
74541;SDS011;63015;45.378;20.360;2022-11-03T12:36:02;30.05;;;14.85;;
74541;SDS011;63015;45.378;20.360;2022-11-03T12:38:03;31.70;;;14.25;;
74541;SDS011;63015;45.378;20.360;2022-11-03T12:40:04;34.15;;;16.00;;
74541;SDS011;63015;45.378;20.360;2022-11-03T12:42:05;33.40;;;13.07;;
74541;SDS011;63015;45.378;20.360;2022-11-03T12:44:06;26.02;;;12.85;;
74541;SDS011;63015;45.378;20.360;2022-11-03T12:46:06;27.17;;;12.95;;
74541;SDS011;63015;45.378;20.360;2022-11-03T12:48:07;30.55;;;14.18;;
74541;SDS011;63015;45.378;20.360;2022-11-03T12:50:08;29.75;;;13.60;;
74541;SDS011;63015;45.378;20.360;2022-11-03T12:52:08;27.60;;;13.88;;
74541;SDS011;63015;45.378;20.360;2022-11-03T12:54:10;25.90;;;12.77;;